Time;durP1;ratioP1;P1;durP2;ratioP2;P2;SDS_P1;SDS_P2;PMS_P1;PMS_P2;Temp;Humidity;BMP_temperature;BMP_pressure;BME280_temperature;BME280_humidity;BME280_pressure;Samples;Min_cycle;Max_cycle;Signal;HPM_P1;HPM_P2
2022/12/09 00:01:37;;;;;;;1.77;1.30;;;22.60;49.30;;;;;;5010002;28;20683;-38
2022/12/09 00:04:08;;;;;;;1.92;1.00;;;22.60;49.20;;;;;;5013362;28;20201;-43
2022/12/09 00:06:38;;;;;;;2.90;1.42;;;22.60;49.20;;;;;;5012351;28;20224;-44
2022/12/09 00:09:13;;;;;;;4.38;1.75;;;22.60;49.20;;;;;;5011683;28;20221;-40
2022/12/09 00:11:44;;;;;;;2.33;1.35;;;22.60;49.20;;;;;;5013453;28;20197;-38
2022/12/09 00:14:17;;;;;;;2.83;1.20;;;22.60;49.10;;;;;;5007308;28;20682;-37
2022/12/09 00:16:48;;;;;;;4.40;1.80;;;22.60;49.20;;;;;;5013243;28;20224;-37
2022/12/09 00:19:18;;;;;;;2.17;1.30;;;22.70;49.30;;;;;;5012504;28;20197;-39
2022/12/09 00:21:49;;;;;;;4.47;1.40;;;22.70;49.30;;;;;;5012990;28;20223;-37
2022/12/09 00:24:20;;;;;;;3.80;1.52;;;22.70;49.20;;;;;;5010302;28;20557;-49
2022/12/09 00:26:50;;;;;;;3.03;1.50;;;22.70;49.30;;;;;;5013184;28;20212;-37
2022/12/09 00:29:23;;;;;;;4.20;1.75;;;22.70;49.40;;;;;;5011878;28;20598;-38
2022/12/09 00:31:54;;;;;;;4.45;1.55;;;22.70;49.40;;;;;;5011983;28;20591;-41
2022/12/09 00:34:25;;;;;;;4.40;1.70;;;22.70;49.50;;;;;;5012388;28;20203;-37
2022/12/09 00:36:56;;;;;;;3.80;1.60;;;22.80;49.60;;;;;;5008978;28;20204;-46
2022/12/09 00:39:27;;;;;;;3.65;1.75;;;22.80;49.50;;;;;;5012765;28;20201;-41
2022/12/09 00:41:57;;;;;;;5.13;1.85;;;22.80;49.50;;;;;;5011500;28;20200;-42
2022/12/09 00:44:30;;;;;;;4.05;1.50;;;22.90;49.50;;;;;;5011075;28;20201;-39
2022/12/09 00:47:02;;;;;;;5.50;2.05;;;22.90;49.50;;;;;;5012733;28;20200;-40
2022/12/09 00:49:33;;;;;;;4.90;2.15;;;22.90;49.50;;;;;;5012793;28;20708;-42
2022/12/09 00:52:04;;;;;;;3.90;1.67;;;22.90;49.50;;;;;;5011675;28;20200;-38
2022/12/09 00:54:35;;;;;;;3.33;1.73;;;22.90;49.50;;;;;;5012467;28;20200;-37
2022/12/09 00:57:06;;;;;;;4.47;1.92;;;22.90;49.50;;;;;;5012056;28;20201;-39
2022/12/09 00:59:38;;;;;;;4.55;2.13;;;22.90;49.50;;;;;;5011280;28;20201;-45
2022/12/09 01:02:09;;;;;;;3.30;2.10;;;23.00;49.60;;;;;;5012531;28;20205;-37
2022/12/09 01:04:40;;;;;;;5.78;2.20;;;23.00;49.60;;;;;;5011108;28;20197;-38
2022/12/09 01:07:12;;;;;;;5.20;2.08;;;23.00;49.70;;;;;;5012342;28;20197;-37
2022/12/09 01:09:43;;;;;;;4.18;1.92;;;23.00;49.80;;;;;;5011496;28;20200;-38
2022/12/09 01:12:14;;;;;;;4.90;2.35;;;23.00;49.80;;;;;;5012408;28;20200;-43
2022/12/09 01:14:46;;;;;;;5.20;1.95;;;23.10;49.90;;;;;;5011303;28;20216;-45
2022/12/09 01:17:17;;;;;;;6.03;2.10;;;23.10;49.90;;;;;;5011642;28;20213;-38
2022/12/09 01:19:48;;;;;;;6.60;2.30;;;23.10;49.80;;;;;;5008329;28;20197;-38
2022/12/09 01:22:19;;;;;;;4.82;2.60;;;23.10;49.80;;;;;;5011217;28;20188;-38
2022/12/09 01:24:50;;;;;;;6.95;2.45;;;23.10;49.90;;;;;;5011464;28;20231;-37
2022/12/09 01:27:20;;;;;;;5.53;2.20;;;23.10;49.90;;;;;;5006772;28;20190;-42
2022/12/09 01:29:53;;;;;;;5.72;2.40;;;23.20;49.90;;;;;;4994867;28;20211;-38
2022/12/09 01:32:24;;;;;;;5.90;2.30;;;23.20;49.90;;;;;;5009581;28;20647;-37
2022/12/09 01:34:54;;;;;;;6.85;2.72;;;23.20;49.80;;;;;;5009669;28;20232;-37
2022/12/09 01:37:25;;;;;;;6.05;2.33;;;23.20;49.90;;;;;;5010983;28;20208;-39
2022/12/09 01:39:56;;;;;;;5.47;2.47;;;23.30;50.00;;;;;;5011606;28;20195;-37
2022/12/09 01:42:28;;;;;;;4.30;2.42;;;23.30;50.00;;;;;;5011772;28;20200;-38
2022/12/09 01:45:41;;;;;;;8.15;2.78;;;23.30;50.10;;;;;;5011429;28;20221;-38
2022/12/09 01:48:13;;;;;;;4.40;2.30;;;23.30;50.10;;;;;;5011311;28;20227;-38
2022/12/09 01:50:48;;;;;;;8.75;2.40;;;23.30;50.10;;;;;;5010704;28;20810;-37
2022/12/09 01:53:21;;;;;;;7.35;2.88;;;23.40;50.20;;;;;;5000325;28;20197;-38
2022/12/09 01:55:53;;;;;;;6.90;2.72;;;23.40;50.30;;;;;;5007574;28;20214;-38
2022/12/09 01:58:24;;;;;;;6.47;2.20;;;23.50;50.20;;;;;;5010695;28;20200;-38
2022/12/09 02:00:57;;;;;;;7.68;2.80;;;23.50;50.30;;;;;;5011023;28;20212;-40
2022/12/09 02:03:27;;;;;;;4.65;2.53;;;23.50;50.30;;;;;;5008103;28;20652;-38
2022/12/09 02:05:59;;;;;;;4.97;2.35;;;23.50;50.20;;;;;;5010920;28;20217;-38
2022/12/09 02:08:30;;;;;;;6.47;2.45;;;23.50;50.20;;;;;;5010535;28;20220;-40
2022/12/09 02:11:10;;;;;;;7.75;3.03;;;23.60;50.20;;;;;;5011062;28;20656;-43
2022/12/09 02:13:50;;;;;;;6.85;2.25;;;23.60;50.40;;;;;;5010492;28;20201;-42
2022/12/09 02:16:25;;;;;;;7.97;2.78;;;23.70;50.40;;;;;;5010650;28;20231;-39
2022/12/09 02:19:02;;;;;;;7.30;2.83;;;23.70;50.30;;;;;;5010987;28;20714;-42
2022/12/09 02:21:38;;;;;;;5.90;2.17;;;23.70;50.30;;;;;;5010486;28;20200;-43
2022/12/09 02:24:15;;;;;;;9.35;3.08;;;23.80;50.40;;;;;;5010809;28;20199;-40
2022/12/09 02:26:49;;;;;;;5.35;2.53;;;23.80;50.40;;;;;;5010302;28;20703;-38
2022/12/09 02:29:44;;;;;;;6.57;2.42;;;23.80;50.30;;;;;;5010126;28;20222;-38
2022/12/09 02:32:33;;;;;;;5.22;2.50;;;23.80;50.30;;;;;;4990766;28;20194;-40
2022/12/09 02:35:11;;;;;;;6.55;2.20;;;23.90;50.20;;;;;;4990842;28;20226;-39
2022/12/09 02:37:46;;;;;;;10.73;3.28;;;23.90;50.20;;;;;;4991477;28;20661;-39
2022/12/09 02:40:22;;;;;;;5.80;2.50;;;24.00;50.30;;;;;;5011180;28;20200;-38
2022/12/09 02:42:53;;;;;;;6.93;2.42;;;24.00;50.20;;;;;;5010087;28;20203;-38
2022/12/09 02:45:27;;;;;;;6.30;2.55;;;24.00;50.20;;;;;;5007383;28;20219;-38
2022/12/09 02:48:00;;;;;;;6.05;2.40;;;24.00;50.20;;;;;;5010315;28;20690;-38
2022/12/09 02:50:36;;;;;;;6.13;3.05;;;24.10;50.20;;;;;;5010618;28;20204;-38
2022/12/09 02:53:10;;;;;;;7.43;2.78;;;24.10;50.20;;;;;;5006496;28;20546;-38
2022/12/09 02:55:44;;;;;;;5.15;2.78;;;24.10;50.20;;;;;;4990551;28;20718;-38
2022/12/09 02:58:15;;;;;;;7.35;2.58;;;24.20;50.20;;;;;;4991244;28;20201;-43
2022/12/09 03:00:45;;;;;;;6.55;2.80;;;24.20;50.20;;;;;;5000244;28;20204;-38
2022/12/09 03:03:19;;;;;;;6.30;2.45;;;24.20;50.20;;;;;;5010175;28;20193;-38
2022/12/09 03:05:58;;;;;;;6.05;2.72;;;24.30;50.20;;;;;;5010104;28;20224;-39
2022/12/09 03:08:36;;;;;;;7.65;3.00;;;24.30;50.20;;;;;;5009090;28;20224;-38
2022/12/09 03:11:10;;;;;;;6.72;2.70;;;24.30;50.20;;;;;;5010089;28;20201;-38
2022/12/09 03:13:51;;;;;;;8.25;3.50;;;24.30;50.20;;;;;;5009930;28;20196;-37
2022/12/09 03:16:30;;;;;;;6.97;2.50;;;24.40;50.30;;;;;;5010134;28;20220;-39
2022/12/09 03:19:05;;;;;;;6.85;2.90;;;24.40;50.20;;;;;;5010203;28;20254;-38
2022/12/09 03:21:41;;;;;;;7.47;2.60;;;24.40;50.20;;;;;;5005119;28;20563;-38
2022/12/09 03:24:15;;;;;;;6.03;2.35;;;24.50;50.10;;;;;;4999717;28;20197;-38
2022/12/09 03:26:47;;;;;;;5.18;2.58;;;24.50;50.10;;;;;;5010754;28;20239;-39
2022/12/09 03:29:22;;;;;;;5.55;2.47;;;24.50;50.00;;;;;;5009215;28;20220;-40
2022/12/09 03:31:56;;;;;;;5.90;2.30;;;24.50;50.00;;;;;;5010296;28;20231;-41
2022/12/09 03:34:32;;;;;;;6.82;2.50;;;24.50;50.00;;;;;;5009169;28;20197;-43
2022/12/09 03:37:05;;;;;;;6.03;2.72;;;24.50;50.00;;;;;;5009430;28;20541;-42
2022/12/09 03:39:39;;;;;;;6.60;2.63;;;24.60;50.00;;;;;;5008803;28;20193;-39
2022/12/09 03:42:17;;;;;;;6.82;2.75;;;24.60;50.00;;;;;;5012071;28;20208;-40
2022/12/09 03:44:51;;;;;;;6.40;2.55;;;24.60;50.00;;;;;;5012974;28;20704;-41
2022/12/09 03:47:22;;;;;;;6.50;2.40;;;24.70;49.90;;;;;;5010193;28;20565;-38
2022/12/09 03:49:53;;;;;;;6.18;1.92;;;24.70;49.90;;;;;;5013184;28;20228;-43
2022/12/09 03:52:33;;;;;;;5.07;2.47;;;24.70;49.90;;;;;;5012636;28;20691;-41
2022/12/09 03:55:07;;;;;;;6.22;2.45;;;24.70;49.90;;;;;;4996691;28;20217;-44
2022/12/09 03:57:41;;;;;;;4.47;2.22;;;24.70;49.80;;;;;;4993552;28;20212;-39
2022/12/09 04:00:13;;;;;;;8.10;2.90;;;24.70;49.80;;;;;;4998060;28;20197;-38
2022/12/09 04:02:43;;;;;;;6.22;2.15;;;24.80;49.80;;;;;;5012993;28;20197;-38
2022/12/09 04:05:14;;;;;;;5.72;2.25;;;24.80;49.80;;;;;;5013069;28;20696;-39
2022/12/09 04:07:47;;;;;;;5.45;2.08;;;24.80;49.80;;;;;;5012422;28;20200;-38
2022/12/09 04:10:18;;;;;;;4.90;2.30;;;24.90;49.80;;;;;;5013055;28;20565;-40
2022/12/09 04:12:49;;;;;;;5.45;2.50;;;24.90;49.80;;;;;;5013007;28;20197;-38
2022/12/09 04:15:20;;;;;;;3.53;2.10;;;24.90;49.80;;;;;;5012716;28;20219;-39
2022/12/09 04:17:50;;;;;;;4.88;1.88;;;25.00;49.80;;;;;;5012980;28;20211;-43
2022/12/09 04:20:22;;;;;;;4.20;2.00;;;25.00;49.80;;;;;;4996166;28;20208;-39
2022/12/09 04:22:54;;;;;;;3.78;1.70;;;25.00;49.90;;;;;;4993438;28;20204;-43
2022/12/09 04:25:25;;;;;;;4.00;1.70;;;25.10;50.00;;;;;;5011129;28;20215;-39
2022/12/09 04:27:56;;;;;;;3.58;1.60;;;25.10;50.00;;;;;;5012993;28;20208;-40
2022/12/09 04:30:27;;;;;;;5.70;1.80;;;25.20;50.00;;;;;;5011674;28;20232;-40
2022/12/09 04:32:57;;;;;;;4.07;1.60;;;25.20;50.00;;;;;;5013030;28;20197;-41
2022/12/09 04:35:28;;;;;;;3.60;1.50;;;25.30;50.10;;;;;;5012311;28;20220;-43
2022/12/09 04:38:01;;;;;;;3.53;1.52;;;25.30;50.70;;;;;;5012336;28;20197;-40
2022/12/09 04:40:32;;;;;;;2.33;1.42;;;25.30;50.00;;;;;;5011903;28;20201;-38
2022/12/09 04:43:03;;;;;;;5.70;1.92;;;25.40;50.20;;;;;;5012603;28;20235;-39
2022/12/09 04:45:34;;;;;;;4.88;1.70;;;25.40;50.20;;;;;;5011511;28;20217;-40
2022/12/09 04:48:04;;;;;;;4.25;1.90;;;25.50;50.30;;;;;;5012416;28;20212;-42
2022/12/09 04:50:35;;;;;;;3.92;1.70;;;25.50;50.20;;;;;;5009405;28;20227;-40
2022/12/09 04:53:08;;;;;;;4.43;1.95;;;25.60;50.30;;;;;;5011444;28;20200;-39
2022/12/09 04:55:38;;;;;;;6.53;2.22;;;25.60;50.30;;;;;;5012074;28;20576;-42
2022/12/09 04:58:09;;;;;;;5.45;2.10;;;25.60;50.20;;;;;;5011973;28;20201;-39
2022/12/09 05:00:40;;;;;;;5.68;2.35;;;25.70;50.30;;;;;;5002410;28;20209;-43
2022/12/09 05:03:11;;;;;;;7.82;2.33;;;25.70;50.30;;;;;;5011550;28;20212;-40
2022/12/09 05:05:43;;;;;;;7.13;2.08;;;25.80;50.40;;;;;;5011952;28;20224;-40
2022/12/09 05:08:15;;;;;;;17.15;3.75;;;25.80;50.40;;;;;;5012069;28;20679;-41
2022/12/09 05:10:49;;;;;;;12.98;2.78;;;25.80;50.80;;;;;;5011815;28;20228;-41
2022/12/09 05:13:20;;;;;;;10.15;3.20;;;25.90;50.90;;;;;;5011535;28;20196;-39
2022/12/09 05:15:51;;;;;;;11.63;3.08;;;25.90;50.80;;;;;;5011288;28;20221;-39
2022/12/09 05:18:22;;;;;;;8.35;2.60;;;26.00;50.80;;;;;;5011539;28;20207;-38
2022/12/09 05:20:53;;;;;;;7.70;2.80;;;26.00;50.80;;;;;;5011344;28;20212;-39
2022/12/09 05:23:26;;;;;;;8.68;2.75;;;26.10;50.80;;;;;;5011342;28;20197;-38
2022/12/09 05:25:57;;;;;;;8.68;2.60;;;26.10;50.80;;;;;;5022399;22;20228;-39
2022/12/09 05:28:28;;;;;;;8.57;2.65;;;26.10;50.70;;;;;;5011887;28;20200;-40
2022/12/09 05:31:02;;;;;;;7.63;2.67;;;26.20;50.60;;;;;;5010726;28;20711;-39
2022/12/09 05:33:33;;;;;;;7.90;2.58;;;26.20;50.60;;;;;;5010684;28;20197;-41
2022/12/09 05:36:04;;;;;;;6.60;2.50;;;26.30;50.50;;;;;;5010212;28;20220;-41
2022/12/09 05:38:36;;;;;;;5.63;2.22;;;26.30;50.40;;;;;;5010940;28;20203;-39
2022/12/09 05:41:07;;;;;;;7.82;2.30;;;26.30;50.30;;;;;;5010575;28;20604;-40
2022/12/09 05:43:39;;;;;;;4.18;2.03;;;26.40;50.30;;;;;;5010855;28;20200;-43
2022/12/09 05:46:10;;;;;;;5.50;2.10;;;26.40;50.20;;;;;;5010698;28;20228;-43
2022/12/09 05:48:41;;;;;;;4.22;1.90;;;26.40;50.10;;;;;;5010375;28;20574;-39
2022/12/09 05:51:23;;;;;;;4.70;2.17;;;26.50;50.10;;;;;;5011704;28;20211;-39
2022/12/09 05:53:56;;;;;;;4.63;2.08;;;26.40;50.00;;;;;;5010745;28;20195;-40
2022/12/09 05:56:27;;;;;;;4.97;1.80;;;26.50;50.00;;;;;;5011190;28;20220;-42
2022/12/09 05:58:58;;;;;;;6.15;1.77;;;26.50;50.00;;;;;;5011593;28;20197;-42
2022/12/09 06:01:30;;;;;;;3.38;1.35;;;26.50;49.90;;;;;;5011503;28;20215;-41
2022/12/09 06:04:01;;;;;;;4.65;1.75;;;26.50;49.80;;;;;;5010588;28;20544;-40
2022/12/09 06:06:31;;;;;;;3.75;1.75;;;26.60;49.70;;;;;;4991571;28;20297;-40
2022/12/09 06:09:07;;;;;;;5.28;1.83;;;26.70;49.70;;;;;;4991814;28;20213;-41
2022/12/09 06:11:38;;;;;;;5.28;1.90;;;26.70;49.60;;;;;;4991187;28;20283;-40
2022/12/09 06:14:11;;;;;;;5.00;1.88;;;26.70;49.50;;;;;;4990727;28;20239;-41
2022/12/09 06:16:42;;;;;;;3.83;1.73;;;26.80;49.60;;;;;;4991175;28;20275;-42
2022/12/09 06:19:14;;;;;;;2.72;1.60;;;26.70;49.40;;;;;;4991107;28;20696;-38
2022/12/09 06:21:45;;;;;;;3.85;1.80;;;26.80;49.40;;;;;;4991287;28;20198;-42
2022/12/09 06:24:17;;;;;;;3.55;1.50;;;26.80;49.40;;;;;;4991103;28;20194;-39
2022/12/09 06:26:48;;;;;;;2.65;1.60;;;26.90;49.40;;;;;;4991846;28;20229;-39
2022/12/09 06:29:19;;;;;;;3.40;1.50;;;26.90;49.40;;;;;;4991312;28;20225;-38
2022/12/09 06:31:50;;;;;;;2.97;1.58;;;26.90;49.30;;;;;;5009519;28;20227;-39
2022/12/09 06:34:20;;;;;;;4.10;1.52;;;27.00;49.20;;;;;;5010996;28;20197;-39
2022/12/09 06:36:51;;;;;;;3.92;1.30;;;27.00;49.20;;;;;;5011088;28;20211;-39
2022/12/09 06:39:24;;;;;;;5.00;1.60;;;27.00;49.10;;;;;;5011026;28;20209;-39
2022/12/09 06:41:55;;;;;;;3.67;1.50;;;27.00;49.00;;;;;;5010443;28;20209;-39
2022/12/09 06:44:26;;;;;;;4.25;1.45;;;27.10;49.00;;;;;;5010855;28;20204;-44
2022/12/09 06:46:57;;;;;;;3.17;1.33;;;27.10;49.00;;;;;;5010666;28;20205;-39
2022/12/09 06:49:28;;;;;;;4.53;1.60;;;27.10;49.00;;;;;;5010631;28;20224;-40
2022/12/09 06:51:58;;;;;;;2.95;1.45;;;27.20;49.00;;;;;;5010313;28;20196;-39
2022/12/09 06:54:31;;;;;;;3.67;1.58;;;27.20;48.90;;;;;;5009816;28;20189;-39
2022/12/09 06:57:02;;;;;;;3.30;1.88;;;27.20;48.90;;;;;;5010543;28;20196;-39
2022/12/09 06:59:33;;;;;;;2.88;1.40;;;27.20;48.90;;;;;;5010836;28;20659;-38
2022/12/09 07:02:04;;;;;;;3.63;1.52;;;27.20;48.90;;;;;;4991307;28;20193;-39
2022/12/09 07:04:34;;;;;;;2.70;1.35;;;27.20;48.90;;;;;;4990981;28;20772;-39
2022/12/09 07:07:05;;;;;;;4.28;1.67;;;27.30;48.90;;;;;;4990794;28;20201;-43
2022/12/09 07:09:38;;;;;;;2.92;1.60;;;27.30;48.90;;;;;;4990747;28;20233;-38
2022/12/09 07:12:09;;;;;;;3.42;1.42;;;27.30;48.80;;;;;;4990837;28;20202;-40
2022/12/09 07:14:40;;;;;;;3.85;1.50;;;27.30;48.70;;;;;;4990692;28;20320;-39
2022/12/09 07:17:16;;;;;;;3.03;1.25;;;27.30;48.70;;;;;;4993578;28;20197;-38
2022/12/09 07:19:47;;;;;;;3.40;1.67;;;27.30;48.60;;;;;;4994833;28;20197;-42
2022/12/09 07:22:18;;;;;;;4.18;1.85;;;27.30;48.60;;;;;;4994478;28;20202;-38
2022/12/09 07:24:51;;;;;;;3.65;1.50;;;27.30;48.60;;;;;;4994498;28;20701;-38
2022/12/09 07:27:21;;;;;;;3.83;1.48;;;27.30;48.60;;;;;;4994919;28;20201;-38
2022/12/09 07:29:53;;;;;;;4.03;1.67;;;27.30;48.50;;;;;;4996549;28;20217;-39
2022/12/09 07:32:23;;;;;;;3.85;1.83;;;27.20;48.40;;;;;;5014327;28;20205;-39
2022/12/09 07:34:54;;;;;;;3.20;1.50;;;27.20;48.40;;;;;;5014057;28;20589;-40
2022/12/09 07:37:25;;;;;;;5.38;2.08;;;27.20;48.40;;;;;;5014165;28;20197;-43
2022/12/09 07:39:57;;;;;;;2.63;1.50;;;27.10;48.40;;;;;;5014052;28;20220;-39
2022/12/09 07:42:28;;;;;;;5.40;1.70;;;27.20;48.40;;;;;;5014165;28;20201;-39
2022/12/09 07:44:59;;;;;;;2.90;1.50;;;27.20;48.50;;;;;;5013706;28;20216;-43
2022/12/09 07:47:29;;;;;;;4.47;1.67;;;27.10;48.40;;;;;;5014013;28;20232;-40
2022/12/09 07:50:00;;;;;;;4.18;1.80;;;27.10;48.40;;;;;;5014698;28;20221;-44
2022/12/09 07:52:31;;;;;;;3.55;1.67;;;27.10;48.40;;;;;;5005714;28;20193;-45
2022/12/09 07:55:03;;;;;;;3.50;1.33;;;27.10;48.50;;;;;;5013710;28;20221;-39
2022/12/09 07:57:35;;;;;;;3.67;1.90;;;27.00;48.40;;;;;;5012324;28;20197;-41
2022/12/09 08:00:06;;;;;;;3.50;1.77;;;27.00;48.40;;;;;;5024111;28;20197;-41
2022/12/09 08:02:37;;;;;;;4.60;1.55;;;27.00;48.50;;;;;;5012473;28;20192;-40
2022/12/09 08:05:09;;;;;;;4.30;1.80;;;27.00;48.50;;;;;;5032972;28;20223;-40
2022/12/09 08:07:39;;;;;;;3.90;1.70;;;27.00;48.50;;;;;;5030460;28;20207;-38
2022/12/09 08:10:13;;;;;;;2.95;1.55;;;27.00;48.50;;;;;;5032831;28;20224;-42
2022/12/09 08:12:43;;;;;;;3.60;1.52;;;26.90;48.50;;;;;;5018908;28;20196;-40
2022/12/09 08:15:15;;;;;;;3.05;1.67;;;26.90;48.50;;;;;;5022941;28;20320;-39
2022/12/09 08:17:46;;;;;;;3.28;1.80;;;26.90;48.50;;;;;;5018687;28;20284;-39
2022/12/09 08:20:17;;;;;;;4.07;1.95;;;26.80;48.40;;;;;;5012740;28;20251;-38
2022/12/09 08:22:48;;;;;;;3.72;1.60;;;26.80;48.40;;;;;;5012025;28;20197;-38
2022/12/09 08:25:20;;;;;;;2.97;1.67;;;26.80;48.50;;;;;;5012707;28;20584;-40
2022/12/09 08:27:51;;;;;;;3.92;1.88;;;26.70;48.50;;;;;;5012055;28;20200;-38
2022/12/09 08:30:22;;;;;;;3.20;1.50;;;26.70;48.50;;;;;;5011493;28;20240;-41
2022/12/09 08:32:53;;;;;;;4.00;1.80;;;26.70;48.50;;;;;;5009159;28;20205;-41
2022/12/09 08:35:24;;;;;;;3.50;1.83;;;26.70;48.60;;;;;;5009617;28;20220;-39
2022/12/09 08:37:55;;;;;;;4.70;2.05;;;26.60;48.50;;;;;;5010591;28;20197;-39
2022/12/09 08:40:27;;;;;;;4.65;1.95;;;26.60;48.50;;;;;;5010813;28;20189;-39
2022/12/09 08:42:58;;;;;;;4.25;1.75;;;26.60;48.50;;;;;;5009916;28;20208;-39
2022/12/09 08:45:29;;;;;;;3.97;1.90;;;26.50;48.40;;;;;;5010730;28;20216;-39
2022/12/09 08:47:59;;;;;;;3.97;1.98;;;26.50;48.40;;;;;;5010870;28;20219;-39
2022/12/09 08:50:30;;;;;;;4.00;1.90;;;26.50;48.50;;;;;;5012029;28;20232;-39
2022/12/09 08:53:01;;;;;;;4.43;2.10;;;26.50;48.60;;;;;;5011713;28;20197;-42
2022/12/09 08:55:37;;;;;;;4.80;1.80;;;26.40;48.50;;;;;;5012407;28;20231;-39
2022/12/09 08:58:08;;;;;;;4.57;1.80;;;26.40;48.50;;;;;;5011968;28;20203;-39
2022/12/09 09:00:39;;;;;;;4.47;2.03;;;26.40;48.50;;;;;;5010989;28;20201;-39
2022/12/09 09:03:10;;;;;;;4.25;1.90;;;26.30;48.50;;;;;;5010344;28;20874;-41
2022/12/09 09:05:44;;;;;;;4.35;1.92;;;26.30;48.60;;;;;;5011834;28;20224;-38
2022/12/09 09:08:15;;;;;;;4.13;1.80;;;26.30;48.60;;;;;;5011760;28;20199;-38
2022/12/09 09:10:48;;;;;;;3.42;1.85;;;26.20;48.50;;;;;;5011380;28;20221;-38
2022/12/09 09:13:19;;;;;;;4.93;2.13;;;26.20;48.50;;;;;;5011930;28;20189;-39
2022/12/09 09:15:50;;;;;;;17.08;7.65;;;26.20;49.20;;;;;;5012173;28;20220;-38
2022/12/09 09:18:21;;;;;;;38.88;18.08;;;26.20;48.50;;;;;;5012077;28;20197;-39
2022/12/09 09:20:56;;;;;;;26.45;13.95;;;26.20;48.60;;;;;;5011893;28;20193;-40
2022/12/09 09:23:27;;;;;;;21.48;11.25;;;26.10;48.50;;;;;;5010903;28;20189;-41
2022/12/09 09:26:00;;;;;;;25.02;12.75;;;26.10;48.50;;;;;;5011538;28;20315;-38
2022/12/09 09:28:31;;;;;;;23.25;13.13;;;26.00;48.60;;;;;;5010981;28;20200;-39
2022/12/09 09:31:02;;;;;;;27.92;14.93;;;26.00;48.60;;;;;;5010772;28;20228;-38
2022/12/09 09:33:33;;;;;;;28.95;15.25;;;26.00;48.60;;;;;;5010883;28;20204;-38
2022/12/09 09:36:06;;;;;;;29.00;15.48;;;25.90;48.60;;;;;;5011246;28;20224;-39
2022/12/09 09:38:37;;;;;;;26.58;14.70;;;25.90;48.60;;;;;;5010695;28;20204;-39
2022/12/09 09:41:22;;;;;;;25.33;14.18;;;25.90;48.70;;;;;;5010828;28;20203;-38
2022/12/09 09:43:54;;;;;;;26.23;14.10;;;25.90;48.90;;;;;;5011093;28;20188;-38
2022/12/09 09:46:33;;;;;;;22.80;13.85;;;25.80;48.80;;;;;;5011479;28;20224;-38
2022/12/09 09:49:04;;;;;;;25.45;13.80;;;25.80;48.90;;;;;;5011166;28;20192;-38
2022/12/09 09:51:36;;;;;;;26.23;13.57;;;25.80;48.90;;;;;;5011825;28;20239;-38
2022/12/09 09:54:09;;;;;;;22.65;13.20;;;25.80;49.00;;;;;;5011395;28;20200;-39
2022/12/09 09:56:47;;;;;;;25.33;14.05;;;25.70;49.00;;;;;;5011725;28;20216;-38
2022/12/09 09:59:28;;;;;;;23.23;13.23;;;25.70;49.10;;;;;;5010386;28;20287;-41
2022/12/09 10:02:06;;;;;;;20.02;13.43;;;25.70;49.00;;;;;;5010935;28;20213;-38
2022/12/09 10:04:47;;;;;;;23.95;13.25;;;25.60;49.00;;;;;;5010999;28;20196;-38
2022/12/09 10:07:23;;;;;;;21.08;12.35;;;25.60;49.00;;;;;;5010992;28;20200;-38
2022/12/09 10:10:02;;;;;;;27.02;13.93;;;25.60;49.00;;;;;;5010605;28;20189;-38
2022/12/09 10:12:44;;;;;;;20.77;12.18;;;25.60;49.20;;;;;;5010289;28;20567;-38
2022/12/09 10:15:18;;;;;;;20.45;12.73;;;25.50;49.30;;;;;;5010605;28;20217;-38
2022/12/09 10:17:54;;;;;;;22.45;12.10;;;25.50;49.40;;;;;;5010462;28;20641;-39
2022/12/09 10:20:27;;;;;;;21.42;11.95;;;25.50;49.50;;;;;;5010718;28;20196;-38
2022/12/09 10:23:01;;;;;;;21.58;12.07;;;25.40;49.40;;;;;;5010699;28;20220;-38
2022/12/09 10:25:33;;;;;;;18.48;11.73;;;25.40;49.40;;;;;;5010793;28;20229;-39
2022/12/09 10:28:15;;;;;;;18.77;11.93;;;25.40;49.50;;;;;;5010792;28;20197;-40
2022/12/09 10:30:46;;;;;;;19.17;12.15;;;25.40;49.50;;;;;;5011153;28;20251;-38
2022/12/09 10:33:18;;;;;;;16.73;11.65;;;25.30;49.40;;;;;;5009775;28;20200;-38
2022/12/09 10:35:49;;;;;;;19.48;11.48;;;25.30;49.40;;;;;;5010480;28;20217;-38
2022/12/09 10:38:22;;;;;;;18.85;11.43;;;25.30;49.40;;;;;;5010743;28;20200;-38
2022/12/09 10:41:04;;;;;;;20.52;11.48;;;25.20;49.40;;;;;;5010238;28;20253;-38
2022/12/09 10:43:36;;;;;;;18.05;11.00;;;25.20;49.40;;;;;;5009456;28;20196;-38
2022/12/09 10:46:11;;;;;;;18.05;11.48;;;25.20;49.40;;;;;;5010013;28;20217;-39
2022/12/09 10:48:46;;;;;;;16.90;11.13;;;25.10;49.40;;;;;;5010608;28;20200;-38
2022/12/09 10:51:18;;;;;;;17.23;11.18;;;25.10;49.40;;;;;;5011677;28;20228;-39
2022/12/09 10:53:53;;;;;;;18.35;10.60;;;25.10;49.40;;;;;;5014003;28;20663;-38
2022/12/09 10:56:27;;;;;;;18.08;11.30;;;25.00;49.40;;;;;;5014653;28;20558;-41
2022/12/09 10:59:19;;;;;;;17.25;10.52;;;25.10;49.40;;;;;;5015300;28;20204;-38
2022/12/09 11:01:54;;;;;;;18.58;10.77;;;25.00;49.40;;;;;;5013643;28;20578;-38
2022/12/09 11:04:26;;;;;;;17.63;10.60;;;25.00;49.40;;;;;;5015224;28;20207;-38
2022/12/09 11:07:00;;;;;;;14.38;9.52;;;25.00;49.40;;;;;;5015068;28;20207;-38
2022/12/09 11:09:32;;;;;;;15.55;9.80;;;25.00;49.50;;;;;;5015240;28;20203;-38
2022/12/09 11:12:05;;;;;;;13.82;8.98;;;24.90;49.40;;;;;;5014925;28;20726;-43
2022/12/09 11:14:40;;;;;;;13.63;9.68;;;24.90;50.00;;;;;;5015088;28;20667;-38
2022/12/09 11:17:17;;;;;;;17.17;10.40;;;24.90;49.50;;;;;;5014781;28;20656;-39
2022/12/09 11:19:52;;;;;;;15.23;9.02;;;24.80;49.40;;;;;;5014480;28;20208;-40
2022/12/09 11:22:36;;;;;;;16.58;9.10;;;24.80;49.40;;;;;;5014226;28;20297;-42
2022/12/09 11:25:25;;;;;;;14.23;8.95;;;24.80;49.50;;;;;;5013989;28;20212;-40
2022/12/09 11:28:00;;;;;;;13.95;8.90;;;24.80;49.50;;;;;;5014654;28;20196;-40
2022/12/09 11:30:35;;;;;;;14.57;8.90;;;24.70;50.10;;;;;;5011935;28;20261;-41
2022/12/09 11:33:25;;;;;;;14.35;8.45;;;24.70;49.50;;;;;;5012912;28;20200;-39
2022/12/09 11:36:01;;;;;;;13.43;8.43;;;24.70;49.50;;;;;;5013842;28;20247;-38
2022/12/09 11:38:41;;;;;;;14.02;7.97;;;24.70;49.50;;;;;;5013330;28;20199;-38
2022/12/09 11:44:15;;;;;;;13.00;8.30;;;24.70;49.60;;;;;;5015591;28;20278;-38
2022/12/09 11:46:55;;;;;;;11.68;7.80;;;24.60;49.50;;;;;;5014958;28;20217;-38
2022/12/09 11:49:27;;;;;;;14.73;8.57;;;24.60;49.50;;;;;;5014120;28;20197;-38
2022/12/09 11:52:28;;;;;;;12.52;7.75;;;24.60;49.50;;;;;;5013978;28;20642;-38
2022/12/09 11:55:16;;;;;;;11.68;7.88;;;24.60;49.60;;;;;;5011403;28;20255;-38
2022/12/09 11:57:52;;;;;;;12.00;7.53;;;24.60;49.50;;;;;;5013294;28;20192;-40
2022/12/09 12:00:25;;;;;;;13.23;7.43;;;24.50;49.50;;;;;;5011227;28;20204;-40
2022/12/09 12:03:04;;;;;;;9.15;6.90;;;24.50;49.60;;;;;;5013156;28;20288;-39
2022/12/09 12:05:39;;;;;;;10.05;7.03;;;24.50;49.60;;;;;;5016570;28;20220;-43
2022/12/09 12:08:20;;;;;;;10.38;7.32;;;24.50;49.70;;;;;;5021472;28;20192;-40
2022/12/09 12:10:56;;;;;;;10.80;7.30;;;24.40;49.60;;;;;;5018570;28;20193;-39
2022/12/09 12:13:30;;;;;;;10.57;6.97;;;24.40;49.60;;;;;;5013065;28;20189;-39
2022/12/09 12:16:08;;;;;;;11.63;6.95;;;24.40;49.70;;;;;;5016019;28;20215;-40
2022/12/09 12:18:46;;;;;;;9.25;6.32;;;24.40;49.70;;;;;;5019601;28;20549;-39
2022/12/09 12:21:36;;;;;;;8.57;6.53;;;24.40;49.70;;;;;;5019091;28;20199;-41
2022/12/09 12:24:40;;;;;;;10.43;6.45;;;24.40;49.70;;;;;;4994094;28;20205;-38
2022/12/09 12:27:25;;;;;;;9.57;6.53;;;24.30;49.70;;;;;;4986134;28;20248;-39
2022/12/09 12:30:00;;;;;;;10.55;6.18;;;24.30;49.70;;;;;;4996277;28;20212;-40
2022/12/09 12:32:43;;;;;;;10.65;6.38;;;24.30;49.60;;;;;;5013006;28;20228;-38
2022/12/09 12:35:41;;;;;;;10.63;6.22;;;24.30;49.70;;;;;;5012745;28;20227;-38
2022/12/09 12:38:22;;;;;;;7.95;5.75;;;24.20;49.70;;;;;;5010003;28;20193;-39
2022/12/09 12:41:00;;;;;;;9.00;5.85;;;24.20;49.70;;;;;;5009971;28;20204;-40
2022/12/09 12:46:51;;;;;;;8.55;5.95;;;24.20;49.80;;;;;;5010379;28;20228;-40
2022/12/09 12:49:41;;;;;;;7.43;5.60;;;24.20;49.80;;;;;;5010924;28;20193;-40
2022/12/09 12:52:26;;;;;;;7.15;5.55;;;24.10;49.70;;;;;;5009717;28;20274;-41
2022/12/09 12:55:04;;;;;;;7.82;5.43;;;24.10;49.70;;;;;;5010417;28;20239;-41
2022/12/09 12:57:41;;;;;;;7.65;5.65;;;24.10;49.80;;;;;;5010068;28;20212;-40
2022/12/09 13:00:17;;;;;;;8.15;5.38;;;24.10;49.80;;;;;;5012454;28;20204;-40
2022/12/09 13:02:53;;;;;;;8.93;5.60;;;24.00;49.80;;;;;;5012266;28;20196;-41
2022/12/09 13:05:25;;;;;;;7.32;5.13;;;24.00;49.80;;;;;;5012529;28;20216;-41
2022/12/09 13:08:01;;;;;;;8.02;5.20;;;24.00;49.80;;;;;;5012583;28;20204;-40
2022/12/09 13:10:38;;;;;;;9.02;5.47;;;24.00;49.90;;;;;;5012554;28;20207;-41
2022/12/09 13:13:17;;;;;;;8.18;5.53;;;24.00;49.90;;;;;;5012340;28;20255;-40
2022/12/09 13:15:52;;;;;;;7.22;5.28;;;23.90;49.80;;;;;;5012377;28;20703;-41
2022/12/09 13:18:26;;;;;;;8.48;5.28;;;23.90;49.90;;;;;;5012208;28;20208;-41
2022/12/09 13:20:58;;;;;;;7.90;4.95;;;23.90;50.00;;;;;;5012095;28;20227;-41
2022/12/09 13:23:46;;;;;;;6.80;4.65;;;23.80;50.00;;;;;;5012675;28;20204;-40